sensor_id;sensor_type;location;lat;lon;timestamp;temperature;humidity
52113;DHT22;38109;49.488;31.988;2022-10-16T04:19:15;2.50;74.30
52113;DHT22;38109;49.488;31.988;2022-10-16T04:21:40;2.40;74.30
52113;DHT22;38109;49.488;31.988;2022-10-16T04:24:06;2.40;74.50
52113;DHT22;38109;49.488;31.988;2022-10-16T04:26:32;2.40;75.10
52113;DHT22;38109;49.488;31.988;2022-10-16T04:28:58;2.40;74.40
52113;DHT22;38109;49.488;31.988;2022-10-16T04:31:23;2.40;74.50
52113;DHT22;38109;49.488;31.988;2022-10-16T04:33:49;2.40;74.50
52113;DHT22;38109;49.488;31.988;2022-10-16T04:36:14;2.40;74.60
52113;DHT22;38109;49.488;31.988;2022-10-16T04:38:40;2.40;74.70
52113;DHT22;38109;49.488;31.988;2022-10-16T04:41:07;2.40;74.70
52113;DHT22;38109;49.488;31.988;2022-10-16T04:43:33;2.40;74.70
52113;DHT22;38109;49.488;31.988;2022-10-16T04:45:59;2.50;74.80
52113;DHT22;38109;49.488;31.988;2022-10-16T04:48:25;2.50;74.80
52113;DHT22;38109;49.488;31.988;2022-10-16T04:50:50;2.50;74.80
52113;DHT22;38109;49.488;31.988;2022-10-16T04:53:16;2.50;74.80
52113;DHT22;38109;49.488;31.988;2022-10-16T04:55:42;2.60;74.90
52113;DHT22;38109;49.488;31.988;2022-10-16T04:58:08;2.60;74.90
52113;DHT22;38109;49.488;31.988;2022-10-16T05:00:34;2.60;74.90
52113;DHT22;38109;49.488;31.988;2022-10-16T05:03:00;2.60;75.00
52113;DHT22;38109;49.488;31.988;2022-10-16T05:05:27;2.70;75.00
52113;DHT22;38109;49.488;31.988;2022-10-16T05:07:53;2.70;75.10
52113;DHT22;38109;49.488;31.988;2022-10-16T05:10:19;2.70;75.00
52113;DHT22;38109;49.488;31.988;2022-10-16T05:12:45;2.80;75.10
52113;DHT22;38109;49.488;31.988;2022-10-16T05:15:11;2.80;75.10
52113;DHT22;38109;49.488;31.988;2022-10-16T05:17:37;2.80;75.10
52113;DHT22;38109;49.488;31.988;2022-10-16T05:20:04;2.90;75.20
52113;DHT22;38109;49.488;31.988;2022-10-16T05:22:29;3.00;75.30
52113;DHT22;38109;49.488;31.988;2022-10-16T05:24:55;3.00;75.30
52113;DHT22;38109;49.488;31.988;2022-10-16T05:27:21;3.10;75.40
52113;DHT22;38109;49.488;31.988;2022-10-16T05:29:47;3.10;75.40
52113;DHT22;38109;49.488;31.988;2022-10-16T05:32:17;3.20;75.50
52113;DHT22;38109;49.488;31.988;2022-10-16T05:34:44;3.20;75.60
52113;DHT22;38109;49.488;31.988;2022-10-16T05:37:10;3.30;75.70
52113;DHT22;38109;49.488;31.988;2022-10-16T05:39:37;3.40;75.70
52113;DHT22;38109;49.488;31.988;2022-10-16T05:42:04;3.50;75.80
52113;DHT22;38109;49.488;31.988;2022-10-16T05:44:29;3.60;76.10
52113;DHT22;38109;49.488;31.988;2022-10-16T05:46:55;3.70;76.40
52113;DHT22;38109;49.488;31.988;2022-10-16T05:49:21;3.90;76.90
52113;DHT22;38109;49.488;31.988;2022-10-16T05:51:46;4.00;77.40
52113;DHT22;38109;49.488;31.988;2022-10-16T05:54:12;4.20;77.80
52113;DHT22;38109;49.488;31.988;2022-10-16T05:56:38;4.40;78.10
52113;DHT22;38109;49.488;31.988;2022-10-16T05:59:04;4.60;78.40
52113;DHT22;38109;49.488;31.988;2022-10-16T06:01:30;4.80;78.70
52113;DHT22;38109;49.488;31.988;2022-10-16T06:03:57;5.00;78.90
52113;DHT22;38109;49.488;31.988;2022-10-16T06:06:25;5.20;79.10
52113;DHT22;38109;49.488;31.988;2022-10-16T06:08:51;5.40;79.20
52113;DHT22;38109;49.488;31.988;2022-10-16T06:11:26;5.50;79.30
52113;DHT22;38109;49.488;31.988;2022-10-16T06:13:53;5.80;79.40
52113;DHT22;38109;49.488;31.988;2022-10-16T06:16:20;5.90;79.50
52113;DHT22;38109;49.488;31.988;2022-10-16T06:18:46;6.10;79.40
52113;DHT22;38109;49.488;31.988;2022-10-16T06:21:16;6.30;79.60
52113;DHT22;38109;49.488;31.988;2022-10-16T06:23:42;6.40;79.60
52113;DHT22;38109;49.488;31.988;2022-10-16T06:26:13;6.50;79.50
52113;DHT22;38109;49.488;31.988;2022-10-16T06:28:39;6.70;79.60
52113;DHT22;38109;49.488;31.988;2022-10-16T06:31:07;6.80;79.60
52113;DHT22;38109;49.488;31.988;2022-10-16T06:33:33;7.00;79.70
52113;DHT22;38109;49.488;31.988;2022-10-16T06:36:03;7.10;79.70
52113;DHT22;38109;49.488;31.988;2022-10-16T06:38:30;7.20;79.70
52113;DHT22;38109;49.488;31.988;2022-10-16T06:40:56;7.30;79.50
52113;DHT22;38109;49.488;31.988;2022-10-16T06:43:22;7.40;79.50
52113;DHT22;38109;49.488;31.988;2022-10-16T06:45:57;7.50;79.50
52113;DHT22;38109;49.488;31.988;2022-10-16T06:48:23;7.60;79.50
52113;DHT22;38109;49.488;31.988;2022-10-16T06:51:08;7.70;79.40
52113;DHT22;38109;49.488;31.988;2022-10-16T06:53:36;7.80;79.50
52113;DHT22;38109;49.488;31.988;2022-10-16T06:58:40;8.00;79.80
52113;DHT22;38109;49.488;31.988;2022-10-16T07:01:06;8.10;79.90
52113;DHT22;38109;49.488;31.988;2022-10-16T07:03:32;8.10;79.80
52113;DHT22;38109;49.488;31.988;2022-10-16T07:06:02;8.20;79.90
52113;DHT22;38109;49.488;31.988;2022-10-16T07:08:31;8.30;79.80
52113;DHT22;38109;49.488;31.988;2022-10-16T07:10:59;8.40;79.70
52113;DHT22;38109;49.488;31.988;2022-10-16T07:13:26;8.50;79.70
52113;DHT22;38109;49.488;31.988;2022-10-16T07:15:52;8.60;79.70
52113;DHT22;38109;49.488;31.988;2022-10-16T07:18:17;8.60;79.70
52113;DHT22;38109;49.488;31.988;2022-10-16T07:20:43;8.70;79.70
52113;DHT22;38109;49.488;31.988;2022-10-16T07:23:09;8.80;79.70
52113;DHT22;38109;49.488;31.988;2022-10-16T07:25:35;8.80;79.60
52113;DHT22;38109;49.488;31.988;2022-10-16T07:28:00;8.90;79.70
52113;DHT22;38109;49.488;31.988;2022-10-16T07:30:26;9.00;79.80
52113;DHT22;38109;49.488;31.988;2022-10-16T07:32:52;9.10;79.70
52113;DHT22;38109;49.488;31.988;2022-10-16T07:35:17;9.10;79.60
52113;DHT22;38109;49.488;31.988;2022-10-16T07:37:46;9.20;79.70
52113;DHT22;38109;49.488;31.988;2022-10-16T07:40:12;9.30;79.80
52113;DHT22;38109;49.488;31.988;2022-10-16T07:42:38;9.30;79.70
52113;DHT22;38109;49.488;31.988;2022-10-16T07:45:04;9.40;79.60
52113;DHT22;38109;49.488;31.988;2022-10-16T07:47:30;9.40;79.60
52113;DHT22;38109;49.488;31.988;2022-10-16T07:49:56;9.50;79.60
52113;DHT22;38109;49.488;31.988;2022-10-16T07:52:21;9.60;80.20
52113;DHT22;38109;49.488;31.988;2022-10-16T07:54:47;9.60;79.50
52113;DHT22;38109;49.488;31.988;2022-10-16T07:57:13;9.70;79.50
52113;DHT22;38109;49.488;31.988;2022-10-16T07:59:45;9.80;79.50
52113;DHT22;38109;49.488;31.988;2022-10-16T08:02:11;9.90;79.50
52113;DHT22;38109;49.488;31.988;2022-10-16T08:04:36;10.00;79.40
52113;DHT22;38109;49.488;31.988;2022-10-16T08:07:02;10.00;79.20
52113;DHT22;38109;49.488;31.988;2022-10-16T08:09:28;10.10;79.00
52113;DHT22;38109;49.488;31.988;2022-10-16T08:11:53;10.20;78.90
52113;DHT22;38109;49.488;31.988;2022-10-16T08:14:19;10.20;78.80
52113;DHT22;38109;49.488;31.988;2022-10-16T08:16:45;10.30;78.60
52113;DHT22;38109;49.488;31.988;2022-10-16T08:19:10;10.30;78.50
52113;DHT22;38109;49.488;31.988;2022-10-16T08:21:36;10.30;78.50
52113;DHT22;38109;49.488;31.988;2022-10-16T08:24:02;10.40;78.50
52113;DHT22;38109;49.488;31.988;2022-10-16T08:26:27;10.50;78.70
52113;DHT22;38109;49.488;31.988;2022-10-16T08:28:54;10.50;78.60
52113;DHT22;38109;49.488;31.988;2022-10-16T08:31:20;10.60;78.50
52113;DHT22;38109;49.488;31.988;2022-10-16T08:33:46;10.70;78.40
52113;DHT22;38109;49.488;31.988;2022-10-16T08:36:14;10.70;78.20
52113;DHT22;38109;49.488;31.988;2022-10-16T08:38:42;10.70;78.20
52113;DHT22;38109;49.488;31.988;2022-10-16T08:49:17;10.90;77.70
52113;DHT22;38109;49.488;31.988;2022-10-16T08:51:43;11.00;77.70
52113;DHT22;38109;49.488;31.988;2022-10-16T08:54:26;11.00;77.50
52113;DHT22;38109;49.488;31.988;2022-10-16T08:57:06;11.10;77.40
52113;DHT22;38109;49.488;31.988;2022-10-16T08:59:33;11.10;77.20
52113;DHT22;38109;49.488;31.988;2022-10-16T09:01:59;11.20;77.00
52113;DHT22;38109;49.488;31.988;2022-10-16T09:12:22;11.30;76.70
52113;DHT22;38109;49.488;31.988;2022-10-16T09:22:54;11.50;75.80
52113;DHT22;38109;49.488;31.988;2022-10-16T09:25:23;11.60;75.70
52113;DHT22;38109;49.488;31.988;2022-10-16T09:27:52;11.60;75.40
52113;DHT22;38109;49.488;31.988;2022-10-16T09:30:20;11.60;75.20
52113;DHT22;38109;49.488;31.988;2022-10-16T09:32:49;11.60;74.90
52113;DHT22;38109;49.488;31.988;2022-10-16T09:35:19;11.70;74.50
52113;DHT22;38109;49.488;31.988;2022-10-16T09:37:49;11.70;74.30
52113;DHT22;38109;49.488;31.988;2022-10-16T09:40:45;11.70;74.30
52113;DHT22;38109;49.488;31.988;2022-10-16T09:43:48;11.70;73.90
52113;DHT22;38109;49.488;31.988;2022-10-16T09:49:00;11.80;73.50
52113;DHT22;38109;49.488;31.988;2022-10-16T09:56:36;11.90;72.70
52113;DHT22;38109;49.488;31.988;2022-10-16T09:59:13;11.90;72.60
52113;DHT22;38109;49.488;31.988;2022-10-16T10:04:07;11.90;71.80
52113;DHT22;38109;49.488;31.988;2022-10-16T10:06:41;12.00;71.60
52113;DHT22;38109;49.488;31.988;2022-10-16T10:12:17;12.00;70.90
52113;DHT22;38109;49.488;31.988;2022-10-16T10:14:54;12.00;69.80
52113;DHT22;38109;49.488;31.988;2022-10-16T10:17:26;12.00;69.30
52113;DHT22;38109;49.488;31.988;2022-10-16T10:20:23;12.00;69.10
52113;DHT22;38109;49.488;31.988;2022-10-16T10:22:49;12.00;68.30
52113;DHT22;38109;49.488;31.988;2022-10-16T10:25:21;12.10;68.80
52113;DHT22;38109;49.488;31.988;2022-10-16T10:36:52;12.20;67.00
52113;DHT22;38109;49.488;31.988;2022-10-16T10:39:25;12.20;67.10
52113;DHT22;38109;49.488;31.988;2022-10-16T10:50:30;12.30;66.50
52113;DHT22;38109;49.488;31.988;2022-10-16T11:04:12;12.50;64.80
52113;DHT22;38109;49.488;31.988;2022-10-16T11:09:21;12.50;65.30
52113;DHT22;38109;49.488;31.988;2022-10-16T11:11:55;12.60;65.20
52113;DHT22;38109;49.488;31.988;2022-10-16T11:14:30;12.60;65.30
52113;DHT22;38109;49.488;31.988;2022-10-16T11:17:08;12.70;65.20
52113;DHT22;38109;49.488;31.988;2022-10-16T11:22:32;12.80;65.00
52113;DHT22;38109;49.488;31.988;2022-10-16T11:25:16;12.80;64.90
52113;DHT22;38109;49.488;31.988;2022-10-16T11:27:50;12.90;64.60
52113;DHT22;38109;49.488;31.988;2022-10-16T11:30:30;12.90;64.40
52113;DHT22;38109;49.488;31.988;2022-10-16T11:33:13;13.00;63.70
52113;DHT22;38109;49.488;31.988;2022-10-16T11:35:50;13.00;63.80
52113;DHT22;38109;49.488;31.988;2022-10-16T11:44:27;13.00;64.10
52113;DHT22;38109;49.488;31.988;2022-10-16T11:47:09;13.10;63.40
52113;DHT22;38109;49.488;31.988;2022-10-16T11:49:39;13.10;63.40
52113;DHT22;38109;49.488;31.988;2022-10-16T11:52:36;13.10;63.40
52113;DHT22;38109;49.488;31.988;2022-10-16T11:55:16;13.20;63.20
52113;DHT22;38109;49.488;31.988;2022-10-16T11:57:49;13.20;63.20
52113;DHT22;38109;49.488;31.988;2022-10-16T12:00:28;13.30;63.10
52113;DHT22;38109;49.488;31.988;2022-10-16T12:03:08;13.30;63.10
52113;DHT22;38109;49.488;31.988;2022-10-16T12:08:23;13.30;62.40
52113;DHT22;38109;49.488;31.988;2022-10-16T12:10:50;13.30;62.50
52113;DHT22;38109;49.488;31.988;2022-10-16T12:18:41;13.40;62.60
52113;DHT22;38109;49.488;31.988;2022-10-16T12:21:08;13.40;62.40
52113;DHT22;38109;49.488;31.988;2022-10-16T12:23:46;13.40;62.10
52113;DHT22;38109;49.488;31.988;2022-10-16T12:26:12;13.40;61.20
52113;DHT22;38109;49.488;31.988;2022-10-16T12:28:38;13.40;61.00
52113;DHT22;38109;49.488;31.988;2022-10-16T12:31:09;13.40;60.80
52113;DHT22;38109;49.488;31.988;2022-10-16T12:33:37;13.40;61.00
52113;DHT22;38109;49.488;31.988;2022-10-16T12:36:31;13.30;61.10
52113;DHT22;38109;49.488;31.988;2022-10-16T12:38:55;13.30;61.30
52113;DHT22;38109;49.488;31.988;2022-10-16T12:41:27;13.30;61.40
52113;DHT22;38109;49.488;31.988;2022-10-16T12:43:53;13.40;61.10
52113;DHT22;38109;49.488;31.988;2022-10-16T12:48:45;13.30;60.70
52113;DHT22;38109;49.488;31.988;2022-10-16T13:05:35;13.30;60.90
52113;DHT22;38109;49.488;31.988;2022-10-16T13:08:38;13.30;61.00
52113;DHT22;38109;49.488;31.988;2022-10-16T13:14:32;13.30;61.00
52113;DHT22;38109;49.488;31.988;2022-10-16T13:17:24;13.30;61.10
52113;DHT22;38109;49.488;31.988;2022-10-16T13:22:50;13.30;60.60
52113;DHT22;38109;49.488;31.988;2022-10-16T13:28:18;13.30;60.70
52113;DHT22;38109;49.488;31.988;2022-10-16T13:30:52;13.30;61.00
52113;DHT22;38109;49.488;31.988;2022-10-16T13:35:57;13.30;61.10
52113;DHT22;38109;49.488;31.988;2022-10-16T13:38:25;13.20;61.10
52113;DHT22;38109;49.488;31.988;2022-10-16T13:41:04;13.20;61.20
52113;DHT22;38109;49.488;31.988;2022-10-16T13:43:38;13.20;61.10
52113;DHT22;38109;49.488;31.988;2022-10-16T13:46:13;13.20;61.20
52113;DHT22;38109;49.488;31.988;2022-10-16T13:48:39;13.20;61.20
52113;DHT22;38109;49.488;31.988;2022-10-16T13:51:17;13.10;60.90
52113;DHT22;38109;49.488;31.988;2022-10-16T13:53:44;13.10;61.10
52113;DHT22;38109;49.488;31.988;2022-10-16T13:56:18;13.10;61.20
52113;DHT22;38109;49.488;31.988;2022-10-16T13:58:44;13.10;61.10
52113;DHT22;38109;49.488;31.988;2022-10-16T14:01:22;13.00;61.10
52113;DHT22;38109;49.488;31.988;2022-10-16T14:03:50;13.00;61.00
52113;DHT22;38109;49.488;31.988;2022-10-16T14:06:24;13.00;61.00
52113;DHT22;38109;49.488;31.988;2022-10-16T14:09:20;12.90;60.90
52113;DHT22;38109;49.488;31.988;2022-10-16T14:11:58;12.90;60.80
52113;DHT22;38109;49.488;31.988;2022-10-16T14:14:27;12.80;60.90
52113;DHT22;38109;49.488;31.988;2022-10-16T14:16:57;12.80;61.00
52113;DHT22;38109;49.488;31.988;2022-10-16T14:19:28;12.80;60.90
52113;DHT22;38109;49.488;31.988;2022-10-16T14:21:54;12.70;61.00
52113;DHT22;38109;49.488;31.988;2022-10-16T14:24:33;12.70;61.00
52113;DHT22;38109;49.488;31.988;2022-10-16T14:27:00;12.60;60.90
52113;DHT22;38109;49.488;31.988;2022-10-16T14:29:28;12.60;61.10
52113;DHT22;38109;49.488;31.988;2022-10-16T14:32:02;12.60;61.20
52113;DHT22;38109;49.488;31.988;2022-10-16T14:36:55;12.50;61.50
52113;DHT22;38109;49.488;31.988;2022-10-16T14:39:22;12.40;61.50
52113;DHT22;38109;49.488;31.988;2022-10-16T14:41:51;12.40;61.60
52113;DHT22;38109;49.488;31.988;2022-10-16T14:44:18;12.30;61.70
52113;DHT22;38109;49.488;31.988;2022-10-16T14:46:45;12.20;61.80
52113;DHT22;38109;49.488;31.988;2022-10-16T14:51:38;12.10;62.00
52113;DHT22;38109;49.488;31.988;2022-10-16T14:54:08;12.10;62.10
52113;DHT22;38109;49.488;31.988;2022-10-16T14:59:27;11.90;62.30
52113;DHT22;38109;49.488;31.988;2022-10-16T15:01:53;11.80;62.50
52113;DHT22;38109;49.488;31.988;2022-10-16T15:04:20;11.70;62.60
52113;DHT22;38109;49.488;31.988;2022-10-16T15:06:45;11.60;62.70
52113;DHT22;38109;49.488;31.988;2022-10-16T15:09:12;11.50;62.90
52113;DHT22;38109;49.488;31.988;2022-10-16T15:11:38;11.40;63.10
52113;DHT22;38109;49.488;31.988;2022-10-16T15:14:04;11.30;63.20
52113;DHT22;38109;49.488;31.988;2022-10-16T15:16:30;11.20;63.40
52113;DHT22;38109;49.488;31.988;2022-10-16T15:18:56;11.10;63.50
52113;DHT22;38109;49.488;31.988;2022-10-16T15:21:29;11.00;64.20
52113;DHT22;38109;49.488;31.988;2022-10-16T15:23:56;11.00;63.80
52113;DHT22;38109;49.488;31.988;2022-10-16T15:26:27;10.90;63.90
52113;DHT22;38109;49.488;31.988;2022-10-16T15:28:53;10.80;64.00
52113;DHT22;38109;49.488;31.988;2022-10-16T15:31:19;10.70;64.20
52113;DHT22;38109;49.488;31.988;2022-10-16T15:33:52;10.60;64.30
52113;DHT22;38109;49.488;31.988;2022-10-16T15:36:29;10.50;64.40
52113;DHT22;38109;49.488;31.988;2022-10-16T15:38:56;10.40;64.50
52113;DHT22;38109;49.488;31.988;2022-10-16T15:41:22;10.30;64.60
52113;DHT22;38109;49.488;31.988;2022-10-16T15:43:48;10.20;64.80
52113;DHT22;38109;49.488;31.988;2022-10-16T15:46:20;10.10;65.00
52113;DHT22;38109;49.488;31.988;2022-10-16T15:48:48;10.00;65.20
52113;DHT22;38109;49.488;31.988;2022-10-16T15:51:14;9.90;65.30
52113;DHT22;38109;49.488;31.988;2022-10-16T15:53:39;9.80;65.50
52113;DHT22;38109;49.488;31.988;2022-10-16T15:56:06;9.70;65.40
52113;DHT22;38109;49.488;31.988;2022-10-16T15:58:32;9.60;65.50
52113;DHT22;38109;49.488;31.988;2022-10-16T16:00:59;9.50;65.70
52113;DHT22;38109;49.488;31.988;2022-10-16T16:03:29;9.40;65.80
52113;DHT22;38109;49.488;31.988;2022-10-16T16:05:55;9.30;66.00
52113;DHT22;38109;49.488;31.988;2022-10-16T16:08:21;9.20;66.10
52113;DHT22;38109;49.488;31.988;2022-10-16T16:10:58;9.10;66.20
52113;DHT22;38109;49.488;31.988;2022-10-16T16:13:24;9.10;66.30
52113;DHT22;38109;49.488;31.988;2022-10-16T16:15:49;9.00;66.60
52113;DHT22;38109;49.488;31.988;2022-10-16T16:18:19;8.90;66.70
52113;DHT22;38109;49.488;31.988;2022-10-16T16:20:45;8.80;66.80
52113;DHT22;38109;49.488;31.988;2022-10-16T16:23:11;8.80;66.90
52113;DHT22;38109;49.488;31.988;2022-10-16T16:25:36;8.70;66.90
52113;DHT22;38109;49.488;31.988;2022-10-16T16:28:02;8.60;67.00
52113;DHT22;38109;49.488;31.988;2022-10-16T16:30:28;8.50;66.90
52113;DHT22;38109;49.488;31.988;2022-10-16T16:32:54;8.40;67.10
52113;DHT22;38109;49.488;31.988;2022-10-16T16:35:20;8.30;67.20
52113;DHT22;38109;49.488;31.988;2022-10-16T16:37:47;8.20;67.40
52113;DHT22;38109;49.488;31.988;2022-10-16T16:40:13;8.20;67.50
52113;DHT22;38109;49.488;31.988;2022-10-16T16:42:39;8.10;67.70
52113;DHT22;38109;49.488;31.988;2022-10-16T16:45:07;8.00;67.70
52113;DHT22;38109;49.488;31.988;2022-10-16T16:47:33;8.00;68.50
52113;DHT22;38109;49.488;31.988;2022-10-16T16:49:58;7.90;68.00
52113;DHT22;38109;49.488;31.988;2022-10-16T16:52:25;7.80;68.10
52113;DHT22;38109;49.488;31.988;2022-10-16T16:54:50;7.80;68.20
52113;DHT22;38109;49.488;31.988;2022-10-16T16:57:19;7.70;68.30
52113;DHT22;38109;49.488;31.988;2022-10-16T16:59:45;7.70;68.30
52113;DHT22;38109;49.488;31.988;2022-10-16T17:02:11;7.60;68.40
52113;DHT22;38109;49.488;31.988;2022-10-16T17:04:37;7.50;68.40
52113;DHT22;38109;49.488;31.988;2022-10-16T17:07:02;7.50;68.60
52113;DHT22;38109;49.488;31.988;2022-10-16T17:09:28;7.50;68.80
52113;DHT22;38109;49.488;31.988;2022-10-16T17:11:54;7.40;68.80
52113;DHT22;38109;49.488;31.988;2022-10-16T17:14:19;7.30;68.80
52113;DHT22;38109;49.488;31.988;2022-10-16T17:16:45;7.30;68.80
52113;DHT22;38109;49.488;31.988;2022-10-16T17:19:18;7.30;69.20
52113;DHT22;38109;49.488;31.988;2022-10-16T17:21:44;7.20;69.00
52113;DHT22;38109;49.488;31.988;2022-10-16T17:24:09;7.10;68.90
52113;DHT22;38109;49.488;31.988;2022-10-16T17:26:35;7.10;69.00
52113;DHT22;38109;49.488;31.988;2022-10-16T17:29:03;7.00;69.10
52113;DHT22;38109;49.488;31.988;2022-10-16T17:31:32;7.00;69.20
52113;DHT22;38109;49.488;31.988;2022-10-16T17:33:59;6.90;69.30
52113;DHT22;38109;49.488;31.988;2022-10-16T17:36:25;6.90;69.50
52113;DHT22;38109;49.488;31.988;2022-10-16T17:39:00;6.80;69.50
52113;DHT22;38109;49.488;31.988;2022-10-16T17:41:30;6.80;69.70
52113;DHT22;38109;49.488;31.988;2022-10-16T17:43:57;6.70;69.50
52113;DHT22;38109;49.488;31.988;2022-10-16T17:46:23;6.70;69.60
52113;DHT22;38109;49.488;31.988;2022-10-16T17:48:51;6.60;69.60
52113;DHT22;38109;49.488;31.988;2022-10-16T17:51:24;6.60;69.70
52113;DHT22;38109;49.488;31.988;2022-10-16T17:53:56;6.50;69.80
52113;DHT22;38109;49.488;31.988;2022-10-16T17:56:22;6.50;69.90
52113;DHT22;38109;49.488;31.988;2022-10-16T17:58:50;6.40;69.90
52113;DHT22;38109;49.488;31.988;2022-10-16T18:01:37;6.40;70.00
52113;DHT22;38109;49.488;31.988;2022-10-16T18:04:10;6.40;70.20
52113;DHT22;38109;49.488;31.988;2022-10-16T18:06:38;6.30;70.20
52113;DHT22;38109;49.488;31.988;2022-10-16T18:09:06;6.30;70.30
52113;DHT22;38109;49.488;31.988;2022-10-16T18:11:33;6.30;70.30
52113;DHT22;38109;49.488;31.988;2022-10-16T18:13:59;6.30;70.30
52113;DHT22;38109;49.488;31.988;2022-10-16T18:16:27;6.20;70.20
52113;DHT22;38109;49.488;31.988;2022-10-16T18:18:54;6.20;70.30
52113;DHT22;38109;49.488;31.988;2022-10-16T18:21:22;6.10;70.40
52113;DHT22;38109;49.488;31.988;2022-10-16T18:23:47;6.10;70.50
52113;DHT22;38109;49.488;31.988;2022-10-16T18:26:14;6.10;70.60
52113;DHT22;38109;49.488;31.988;2022-10-16T18:28:40;6.00;70.60
52113;DHT22;38109;49.488;31.988;2022-10-16T18:31:14;6.00;70.70
52113;DHT22;38109;49.488;31.988;2022-10-16T18:33:41;6.00;70.80
52113;DHT22;38109;49.488;31.988;2022-10-16T18:36:16;5.90;70.80
52113;DHT22;38109;49.488;31.988;2022-10-16T18:38:42;5.90;70.80
52113;DHT22;38109;49.488;31.988;2022-10-16T18:41:08;5.90;70.90
52113;DHT22;38109;49.488;31.988;2022-10-16T18:43:35;5.90;70.90
52113;DHT22;38109;49.488;31.988;2022-10-16T18:46:16;5.80;71.00
52113;DHT22;38109;49.488;31.988;2022-10-16T18:48:42;5.80;71.00
52113;DHT22;38109;49.488;31.988;2022-10-16T18:51:32;5.80;71.10
52113;DHT22;38109;49.488;31.988;2022-10-16T18:54:00;5.80;71.20
52113;DHT22;38109;49.488;31.988;2022-10-16T18:56:28;5.70;71.20
52113;DHT22;38109;49.488;31.988;2022-10-16T18:58:55;5.70;71.30
52113;DHT22;38109;49.488;31.988;2022-10-16T19:01:25;5.70;71.30
52113;DHT22;38109;49.488;31.988;2022-10-16T19:04:00;5.60;71.30
52113;DHT22;38109;49.488;31.988;2022-10-16T19:06:28;5.50;71.30
52113;DHT22;38109;49.488;31.988;2022-10-16T19:08:55;5.50;71.40
52113;DHT22;38109;49.488;31.988;2022-10-16T19:11:22;5.50;71.50
52113;DHT22;38109;49.488;31.988;2022-10-16T19:13:49;5.40;71.50
52113;DHT22;38109;49.488;31.988;2022-10-16T19:16:17;5.40;71.60
52113;DHT22;38109;49.488;31.988;2022-10-16T19:18:43;5.40;71.70
52113;DHT22;38109;49.488;31.988;2022-10-16T19:21:10;5.30;71.60
52113;DHT22;38109;49.488;31.988;2022-10-16T19:23:36;5.30;71.60
52113;DHT22;38109;49.488;31.988;2022-10-16T19:26:05;5.30;71.80
52113;DHT22;38109;49.488;31.988;2022-10-16T19:28:31;5.30;71.80
52113;DHT22;38109;49.488;31.988;2022-10-16T19:31:00;5.30;71.80
52113;DHT22;38109;49.488;31.988;2022-10-16T19:33:27;5.20;72.00
52113;DHT22;38109;49.488;31.988;2022-10-16T19:35:53;5.20;72.00
52113;DHT22;38109;49.488;31.988;2022-10-16T19:38:19;5.20;72.10
52113;DHT22;38109;49.488;31.988;2022-10-16T19:40:44;5.10;72.20
52113;DHT22;38109;49.488;31.988;2022-10-16T19:43:10;5.10;72.40
52113;DHT22;38109;49.488;31.988;2022-10-16T19:45:36;5.10;72.40
52113;DHT22;38109;49.488;31.988;2022-10-16T19:48:02;5.00;72.30
52113;DHT22;38109;49.488;31.988;2022-10-16T19:50:27;5.00;72.30
52113;DHT22;38109;49.488;31.988;2022-10-16T19:52:53;5.00;72.40
52113;DHT22;38109;49.488;31.988;2022-10-16T19:55:20;5.00;72.50
52113;DHT22;38109;49.488;31.988;2022-10-16T19:57:46;5.00;73.10
52113;DHT22;38109;49.488;31.988;2022-10-16T20:00:12;5.00;72.60
52113;DHT22;38109;49.488;31.988;2022-10-16T20:02:38;5.00;72.70
52113;DHT22;38109;49.488;31.988;2022-10-16T20:05:04;5.00;72.70
52113;DHT22;38109;49.488;31.988;2022-10-16T20:07:30;5.00;72.70
52113;DHT22;38109;49.488;31.988;2022-10-16T20:09:55;5.00;72.80
52113;DHT22;38109;49.488;31.988;2022-10-16T20:12:21;5.00;72.70
52113;DHT22;38109;49.488;31.988;2022-10-16T20:14:47;5.00;72.70
52113;DHT22;38109;49.488;31.988;2022-10-16T20:17:12;4.90;72.60
52113;DHT22;38109;49.488;31.988;2022-10-16T20:19:38;4.90;72.60
52113;DHT22;38109;49.488;31.988;2022-10-16T20:22:04;4.90;72.60
52113;DHT22;38109;49.488;31.988;2022-10-16T20:24:30;4.80;72.60
52113;DHT22;38109;49.488;31.988;2022-10-16T20:26:56;4.80;72.60
52113;DHT22;38109;49.488;31.988;2022-10-16T20:29:23;4.80;72.60
52113;DHT22;38109;49.488;31.988;2022-10-16T20:31:48;4.70;72.70
52113;DHT22;38109;49.488;31.988;2022-10-16T20:34:14;4.70;72.80
52113;DHT22;38109;49.488;31.988;2022-10-16T20:36:40;4.60;72.90
52113;DHT22;38109;49.488;31.988;2022-10-16T20:39:10;4.60;73.00
52113;DHT22;38109;49.488;31.988;2022-10-16T20:41:38;4.60;73.10
52113;DHT22;38109;49.488;31.988;2022-10-16T20:44:04;4.50;73.10
52113;DHT22;38109;49.488;31.988;2022-10-16T20:46:29;4.60;73.20
52113;DHT22;38109;49.488;31.988;2022-10-16T20:48:56;4.50;73.20
52113;DHT22;38109;49.488;31.988;2022-10-16T20:51:25;4.50;73.30
52113;DHT22;38109;49.488;31.988;2022-10-16T20:54:03;4.50;73.30
52113;DHT22;38109;49.488;31.988;2022-10-16T20:56:32;4.50;73.40
52113;DHT22;38109;49.488;31.988;2022-10-16T20:58:58;4.50;73.50
52113;DHT22;38109;49.488;31.988;2022-10-16T21:01:26;4.50;73.60
52113;DHT22;38109;49.488;31.988;2022-10-16T21:03:55;4.50;73.60
52113;DHT22;38109;49.488;31.988;2022-10-16T21:06:21;4.50;73.50
52113;DHT22;38109;49.488;31.988;2022-10-16T21:08:47;4.50;73.50
52113;DHT22;38109;49.488;31.988;2022-10-16T21:11:22;4.50;73.60
52113;DHT22;38109;49.488;31.988;2022-10-16T21:13:51;4.50;73.70
52113;DHT22;38109;49.488;31.988;2022-10-16T21:16:17;4.40;73.80
52113;DHT22;38109;49.488;31.988;2022-10-16T21:18:42;4.40;73.70
52113;DHT22;38109;49.488;31.988;2022-10-16T21:21:09;4.40;73.80
52113;DHT22;38109;49.488;31.988;2022-10-16T21:23:36;4.40;73.90
52113;DHT22;38109;49.488;31.988;2022-10-16T21:26:02;4.40;73.80
52113;DHT22;38109;49.488;31.988;2022-10-16T21:28:32;4.30;73.80
52113;DHT22;38109;49.488;31.988;2022-10-16T21:30:58;4.40;73.90
52113;DHT22;38109;49.488;31.988;2022-10-16T21:33:24;4.40;74.00
52113;DHT22;38109;49.488;31.988;2022-10-16T21:35:49;4.30;73.90
52113;DHT22;38109;49.488;31.988;2022-10-16T21:38:15;4.30;74.00
52113;DHT22;38109;49.488;31.988;2022-10-16T21:40:41;4.30;74.10
52113;DHT22;38109;49.488;31.988;2022-10-16T21:43:06;4.30;74.00
52113;DHT22;38109;49.488;31.988;2022-10-16T21:45:33;4.30;74.10
52113;DHT22;38109;49.488;31.988;2022-10-16T21:47:59;4.30;74.00
52113;DHT22;38109;49.488;31.988;2022-10-16T21:50:24;4.30;74.00
52113;DHT22;38109;49.488;31.988;2022-10-16T21:52:50;4.30;74.00
52113;DHT22;38109;49.488;31.988;2022-10-16T21:55:16;4.30;74.00
52113;DHT22;38109;49.488;31.988;2022-10-16T21:57:42;4.20;74.00